sensor_id;sensor_type;location;lat;lon;timestamp;P1;durP1;ratioP1;P2;durP2;ratioP2
49183;SDS011;35021;49.214;12.270;2022-07-05T00:01:31;1.13;;;1.00;;
49183;SDS011;35021;49.214;12.270;2022-07-05T00:03:58;2.25;;;1.45;;
49183;SDS011;35021;49.214;12.270;2022-07-05T00:06:25;1.25;;;0.90;;
49183;SDS011;35021;49.214;12.270;2022-07-05T00:08:52;2.47;;;1.00;;
49183;SDS011;35021;49.214;12.270;2022-07-05T00:11:19;2.80;;;1.30;;
49183;SDS011;35021;49.214;12.270;2022-07-05T00:13:46;2.13;;;1.10;;
49183;SDS011;35021;49.214;12.270;2022-07-05T00:16:13;1.60;;;1.10;;
49183;SDS011;35021;49.214;12.270;2022-07-05T00:18:39;2.90;;;1.17;;
49183;SDS011;35021;49.214;12.270;2022-07-05T00:21:06;2.03;;;1.15;;
49183;SDS011;35021;49.214;12.270;2022-07-05T00:23:33;2.47;;;1.20;;
49183;SDS011;35021;49.214;12.270;2022-07-05T00:26:00;1.42;;;1.13;;
49183;SDS011;35021;49.214;12.270;2022-07-05T00:28:27;2.05;;;1.35;;
49183;SDS011;35021;49.214;12.270;2022-07-05T00:30:54;1.25;;;1.15;;
49183;SDS011;35021;49.214;12.270;2022-07-05T00:33:21;1.40;;;1.23;;
49183;SDS011;35021;49.214;12.270;2022-07-05T00:35:47;2.78;;;1.33;;
49183;SDS011;35021;49.214;12.270;2022-07-05T00:38:14;1.33;;;0.95;;
49183;SDS011;35021;49.214;12.270;2022-07-05T00:40:42;1.27;;;1.08;;
49183;SDS011;35021;49.214;12.270;2022-07-05T00:43:10;1.35;;;1.20;;
49183;SDS011;35021;49.214;12.270;2022-07-05T00:45:37;1.10;;;1.00;;
49183;SDS011;35021;49.214;12.270;2022-07-05T00:48:03;2.22;;;1.02;;
49183;SDS011;35021;49.214;12.270;2022-07-05T00:50:30;1.40;;;1.10;;
49183;SDS011;35021;49.214;12.270;2022-07-05T00:52:57;1.58;;;1.10;;
49183;SDS011;35021;49.214;12.270;2022-07-05T00:55:26;1.20;;;1.10;;
49183;SDS011;35021;49.214;12.270;2022-07-05T00:57:53;1.42;;;1.08;;
49183;SDS011;35021;49.214;12.270;2022-07-05T01:00:21;1.42;;;1.00;;
49183;SDS011;35021;49.214;12.270;2022-07-05T01:02:48;2.65;;;0.90;;
49183;SDS011;35021;49.214;12.270;2022-07-05T01:05:15;1.40;;;0.98;;
49183;SDS011;35021;49.214;12.270;2022-07-05T01:07:42;1.02;;;0.90;;
49183;SDS011;35021;49.214;12.270;2022-07-05T01:10:09;2.10;;;1.33;;
49183;SDS011;35021;49.214;12.270;2022-07-05T01:12:37;1.38;;;1.00;;
49183;SDS011;35021;49.214;12.270;2022-07-05T01:15:07;1.35;;;1.13;;
49183;SDS011;35021;49.214;12.270;2022-07-05T01:17:35;1.33;;;1.00;;
49183;SDS011;35021;49.214;12.270;2022-07-05T01:20:06;2.55;;;1.20;;
49183;SDS011;35021;49.214;12.270;2022-07-05T01:27:52;1.08;;;0.98;;
49183;SDS011;35021;49.214;12.270;2022-07-05T01:30:19;1.50;;;1.30;;
49183;SDS011;35021;49.214;12.270;2022-07-05T01:32:46;2.55;;;1.60;;
49183;SDS011;35021;49.214;12.270;2022-07-05T01:35:14;1.67;;;1.10;;
49183;SDS011;35021;49.214;12.270;2022-07-05T01:37:47;1.42;;;1.10;;
49183;SDS011;35021;49.214;12.270;2022-07-05T01:40:15;1.23;;;0.93;;
49183;SDS011;35021;49.214;12.270;2022-07-05T01:42:43;1.55;;;1.05;;
49183;SDS011;35021;49.214;12.270;2022-07-05T01:45:10;1.85;;;1.00;;
49183;SDS011;35021;49.214;12.270;2022-07-05T01:47:41;1.40;;;1.30;;
49183;SDS011;35021;49.214;12.270;2022-07-05T01:50:12;1.50;;;1.40;;
49183;SDS011;35021;49.214;12.270;2022-07-05T01:52:42;1.30;;;1.20;;
49183;SDS011;35021;49.214;12.270;2022-07-05T01:55:12;1.20;;;1.10;;
49183;SDS011;35021;49.214;12.270;2022-07-05T01:57:39;2.42;;;1.20;;
49183;SDS011;35021;49.214;12.270;2022-07-05T02:00:06;1.85;;;1.27;;
49183;SDS011;35021;49.214;12.270;2022-07-05T02:02:33;1.70;;;1.20;;
49183;SDS011;35021;49.214;12.270;2022-07-05T02:05:01;1.30;;;1.10;;
49183;SDS011;35021;49.214;12.270;2022-07-05T02:07:28;1.52;;;1.10;;
49183;SDS011;35021;49.214;12.270;2022-07-05T02:09:55;2.25;;;1.10;;
49183;SDS011;35021;49.214;12.270;2022-07-05T02:12:22;1.70;;;1.13;;
49183;SDS011;35021;49.214;12.270;2022-07-05T02:14:49;2.08;;;1.10;;
49183;SDS011;35021;49.214;12.270;2022-07-05T02:17:16;1.27;;;1.17;;
49183;SDS011;35021;49.214;12.270;2022-07-05T02:19:42;1.88;;;1.20;;
49183;SDS011;35021;49.214;12.270;2022-07-05T02:22:09;1.13;;;1.00;;
49183;SDS011;35021;49.214;12.270;2022-07-05T02:24:36;1.70;;;1.40;;
49183;SDS011;35021;49.214;12.270;2022-07-05T02:27:03;1.75;;;1.30;;
49183;SDS011;35021;49.214;12.270;2022-07-05T02:29:30;1.55;;;1.05;;
49183;SDS011;35021;49.214;12.270;2022-07-05T02:31:57;1.38;;;1.02;;
49183;SDS011;35021;49.214;12.270;2022-07-05T02:34:24;1.33;;;1.15;;
49183;SDS011;35021;49.214;12.270;2022-07-05T02:36:51;1.38;;;1.13;;
49183;SDS011;35021;49.214;12.270;2022-07-05T02:39:17;1.23;;;1.08;;
49183;SDS011;35021;49.214;12.270;2022-07-05T02:41:44;1.17;;;1.08;;
49183;SDS011;35021;49.214;12.270;2022-07-05T02:44:11;1.50;;;1.40;;
49183;SDS011;35021;49.214;12.270;2022-07-05T02:46:38;1.10;;;1.00;;
49183;SDS011;35021;49.214;12.270;2022-07-05T02:49:05;2.38;;;1.38;;
49183;SDS011;35021;49.214;12.270;2022-07-05T02:51:32;1.33;;;1.23;;
49183;SDS011;35021;49.214;12.270;2022-07-05T02:53:59;1.40;;;1.20;;
49183;SDS011;35021;49.214;12.270;2022-07-05T02:56:25;1.20;;;1.10;;
49183;SDS011;35021;49.214;12.270;2022-07-05T02:58:52;1.85;;;1.20;;
49183;SDS011;35021;49.214;12.270;2022-07-05T03:01:19;1.30;;;1.13;;
49183;SDS011;35021;49.214;12.270;2022-07-05T03:03:46;1.33;;;1.08;;
49183;SDS011;35021;49.214;12.270;2022-07-05T03:06:13;2.83;;;1.30;;
49183;SDS011;35021;49.214;12.270;2022-07-05T03:08:40;2.00;;;1.40;;
49183;SDS011;35021;49.214;12.270;2022-07-05T03:11:08;1.70;;;1.30;;
49183;SDS011;35021;49.214;12.270;2022-07-05T03:13:35;1.40;;;1.27;;
49183;SDS011;35021;49.214;12.270;2022-07-05T03:16:02;2.38;;;1.10;;
49183;SDS011;35021;49.214;12.270;2022-07-05T03:18:29;1.40;;;1.30;;
49183;SDS011;35021;49.214;12.270;2022-07-05T03:20:56;1.75;;;1.33;;
49183;SDS011;35021;49.214;12.270;2022-07-05T03:23:22;1.40;;;1.20;;
49183;SDS011;35021;49.214;12.270;2022-07-05T03:25:49;3.35;;;1.50;;
49183;SDS011;35021;49.214;12.270;2022-07-05T03:28:16;2.08;;;1.20;;
49183;SDS011;35021;49.214;12.270;2022-07-05T03:30:43;1.48;;;1.30;;
49183;SDS011;35021;49.214;12.270;2022-07-05T03:33:10;1.85;;;1.10;;
49183;SDS011;35021;49.214;12.270;2022-07-05T03:35:37;1.45;;;1.35;;
49183;SDS011;35021;49.214;12.270;2022-07-05T03:38:04;1.55;;;1.35;;
49183;SDS011;35021;49.214;12.270;2022-07-05T03:40:31;1.20;;;1.10;;
49183;SDS011;35021;49.214;12.270;2022-07-05T03:42:58;2.38;;;1.20;;
49183;SDS011;35021;49.214;12.270;2022-07-05T03:45:25;2.95;;;1.40;;
49183;SDS011;35021;49.214;12.270;2022-07-05T03:47:52;2.20;;;1.20;;
49183;SDS011;35021;49.214;12.270;2022-07-05T03:50:25;1.67;;;1.42;;
49183;SDS011;35021;49.214;12.270;2022-07-05T03:52:52;2.65;;;1.40;;
49183;SDS011;35021;49.214;12.270;2022-07-05T03:55:19;3.85;;;1.40;;
49183;SDS011;35021;49.214;12.270;2022-07-05T03:57:46;1.98;;;1.35;;
49183;SDS011;35021;49.214;12.270;2022-07-05T04:00:13;1.33;;;1.23;;
49183;SDS011;35021;49.214;12.270;2022-07-05T04:02:41;2.22;;;1.42;;
49183;SDS011;35021;49.214;12.270;2022-07-05T04:05:08;2.47;;;1.25;;
49183;SDS011;35021;49.214;12.270;2022-07-05T04:07:46;2.65;;;1.40;;
49183;SDS011;35021;49.214;12.270;2022-07-05T04:10:17;2.15;;;1.63;;
49183;SDS011;35021;49.214;12.270;2022-07-05T04:12:45;3.28;;;1.55;;
49183;SDS011;35021;49.214;12.270;2022-07-05T04:15:12;1.98;;;1.20;;
49183;SDS011;35021;49.214;12.270;2022-07-05T04:17:49;2.03;;;1.20;;
49183;SDS011;35021;49.214;12.270;2022-07-05T04:20:21;3.20;;;1.60;;
49183;SDS011;35021;49.214;12.270;2022-07-05T04:22:49;1.98;;;1.30;;
49183;SDS011;35021;49.214;12.270;2022-07-05T04:25:16;1.55;;;1.30;;
49183;SDS011;35021;49.214;12.270;2022-07-05T04:27:47;2.38;;;1.10;;
49183;SDS011;35021;49.214;12.270;2022-07-05T04:30:16;1.35;;;1.17;;
49183;SDS011;35021;49.214;12.270;2022-07-05T04:32:46;2.28;;;1.25;;
49183;SDS011;35021;49.214;12.270;2022-07-05T04:35:13;1.27;;;1.15;;
49183;SDS011;35021;49.214;12.270;2022-07-05T04:37:41;2.00;;;1.35;;
49183;SDS011;35021;49.214;12.270;2022-07-05T04:40:10;2.20;;;1.23;;
49183;SDS011;35021;49.214;12.270;2022-07-05T04:42:38;1.55;;;1.30;;
49183;SDS011;35021;49.214;12.270;2022-07-05T04:45:05;2.88;;;1.13;;
49183;SDS011;35021;49.214;12.270;2022-07-05T04:47:33;3.05;;;1.77;;
49183;SDS011;35021;49.214;12.270;2022-07-05T04:50:01;1.58;;;1.42;;
49183;SDS011;35021;49.214;12.270;2022-07-05T04:52:29;2.05;;;1.50;;
49183;SDS011;35021;49.214;12.270;2022-07-05T04:54:56;2.05;;;1.30;;
49183;SDS011;35021;49.214;12.270;2022-07-05T04:57:23;1.70;;;1.60;;
49183;SDS011;35021;49.214;12.270;2022-07-05T04:59:50;1.45;;;1.25;;
49183;SDS011;35021;49.214;12.270;2022-07-05T05:02:17;1.13;;;1.00;;
49183;SDS011;35021;49.214;12.270;2022-07-05T05:04:44;1.67;;;1.38;;
49183;SDS011;35021;49.214;12.270;2022-07-05T05:07:11;1.52;;;1.30;;
49183;SDS011;35021;49.214;12.270;2022-07-05T05:09:39;1.98;;;1.35;;
49183;SDS011;35021;49.214;12.270;2022-07-05T05:12:06;1.20;;;1.08;;
49183;SDS011;35021;49.214;12.270;2022-07-05T05:14:33;3.38;;;1.40;;
49183;SDS011;35021;49.214;12.270;2022-07-05T05:17:00;1.30;;;1.13;;
49183;SDS011;35021;49.214;12.270;2022-07-05T05:19:27;2.22;;;1.10;;
49183;SDS011;35021;49.214;12.270;2022-07-05T05:21:54;2.83;;;1.67;;
49183;SDS011;35021;49.214;12.270;2022-07-05T05:24:20;1.58;;;1.30;;
49183;SDS011;35021;49.214;12.270;2022-07-05T05:26:47;1.30;;;1.20;;
49183;SDS011;35021;49.214;12.270;2022-07-05T05:29:15;2.13;;;1.58;;
49183;SDS011;35021;49.214;12.270;2022-07-05T05:31:42;2.58;;;1.30;;
49183;SDS011;35021;49.214;12.270;2022-07-05T05:34:09;2.47;;;1.42;;
49183;SDS011;35021;49.214;12.270;2022-07-05T05:36:35;2.17;;;1.20;;
49183;SDS011;35021;49.214;12.270;2022-07-05T05:39:02;1.58;;;1.27;;
49183;SDS011;35021;49.214;12.270;2022-07-05T05:41:29;1.50;;;1.23;;
49183;SDS011;35021;49.214;12.270;2022-07-05T05:43:56;1.90;;;1.25;;
49183;SDS011;35021;49.214;12.270;2022-07-05T05:46:23;1.50;;;1.27;;
49183;SDS011;35021;49.214;12.270;2022-07-05T05:48:50;2.72;;;1.23;;
49183;SDS011;35021;49.214;12.270;2022-07-05T05:51:17;2.20;;;1.45;;
49183;SDS011;35021;49.214;12.270;2022-07-05T05:53:44;2.10;;;1.40;;
49183;SDS011;35021;49.214;12.270;2022-07-05T05:56:12;1.33;;;1.20;;
49183;SDS011;35021;49.214;12.270;2022-07-05T05:58:39;1.98;;;1.30;;
49183;SDS011;35021;49.214;12.270;2022-07-05T06:01:09;1.55;;;1.33;;
49183;SDS011;35021;49.214;12.270;2022-07-05T06:03:36;1.52;;;1.42;;
49183;SDS011;35021;49.214;12.270;2022-07-05T06:06:03;1.95;;;1.50;;
49183;SDS011;35021;49.214;12.270;2022-07-05T06:08:30;1.52;;;1.15;;
49183;SDS011;35021;49.214;12.270;2022-07-05T06:10:56;1.83;;;1.23;;
49183;SDS011;35021;49.214;12.270;2022-07-05T06:13:29;2.15;;;1.50;;
49183;SDS011;35021;49.214;12.270;2022-07-05T06:15:56;1.63;;;1.20;;
49183;SDS011;35021;49.214;12.270;2022-07-05T06:18:23;2.13;;;1.50;;
49183;SDS011;35021;49.214;12.270;2022-07-05T06:20:50;2.22;;;1.40;;
49183;SDS011;35021;49.214;12.270;2022-07-05T06:23:17;1.90;;;1.40;;
49183;SDS011;35021;49.214;12.270;2022-07-05T06:25:44;1.60;;;1.30;;
49183;SDS011;35021;49.214;12.270;2022-07-05T06:28:11;1.90;;;1.50;;
49183;SDS011;35021;49.214;12.270;2022-07-05T06:30:37;1.67;;;1.45;;
49183;SDS011;35021;49.214;12.270;2022-07-05T06:33:05;2.55;;;1.20;;
49183;SDS011;35021;49.214;12.270;2022-07-05T06:35:32;2.00;;;1.80;;
49183;SDS011;35021;49.214;12.270;2022-07-05T06:38:01;1.98;;;1.48;;
49183;SDS011;35021;49.214;12.270;2022-07-05T06:43:01;1.42;;;1.20;;
49183;SDS011;35021;49.214;12.270;2022-07-05T06:45:32;3.65;;;1.45;;
49183;SDS011;35021;49.214;12.270;2022-07-05T06:48:00;1.80;;;1.33;;
49183;SDS011;35021;49.214;12.270;2022-07-05T06:50:32;2.42;;;1.65;;
49183;SDS011;35021;49.214;12.270;2022-07-05T06:53:05;1.48;;;1.38;;
49183;SDS011;35021;49.214;12.270;2022-07-05T06:55:32;2.20;;;1.33;;
49183;SDS011;35021;49.214;12.270;2022-07-05T06:58:00;2.53;;;1.38;;
49183;SDS011;35021;49.214;12.270;2022-07-05T07:00:43;1.52;;;1.33;;
49183;SDS011;35021;49.214;12.270;2022-07-05T07:03:31;1.50;;;1.40;;
49183;SDS011;35021;49.214;12.270;2022-07-05T07:06:18;1.75;;;1.65;;
49183;SDS011;35021;49.214;12.270;2022-07-05T07:08:45;2.15;;;1.40;;
49183;SDS011;35021;49.214;12.270;2022-07-05T07:11:30;1.85;;;1.30;;
49183;SDS011;35021;49.214;12.270;2022-07-05T07:13:57;2.20;;;1.50;;
49183;SDS011;35021;49.214;12.270;2022-07-05T07:16:24;2.00;;;1.52;;
49183;SDS011;35021;49.214;12.270;2022-07-05T07:18:52;2.35;;;1.55;;
49183;SDS011;35021;49.214;12.270;2022-07-05T07:21:36;2.05;;;1.50;;
49183;SDS011;35021;49.214;12.270;2022-07-05T07:24:03;1.52;;;1.40;;
49183;SDS011;35021;49.214;12.270;2022-07-05T07:26:31;2.42;;;1.33;;
49183;SDS011;35021;49.214;12.270;2022-07-05T07:29:18;2.60;;;1.70;;
49183;SDS011;35021;49.214;12.270;2022-07-05T07:31:45;1.45;;;1.35;;
49183;SDS011;35021;49.214;12.270;2022-07-05T07:34:11;3.20;;;1.70;;
49183;SDS011;35021;49.214;12.270;2022-07-05T07:36:38;1.60;;;1.40;;
49183;SDS011;35021;49.214;12.270;2022-07-05T07:39:05;2.38;;;1.42;;
49183;SDS011;35021;49.214;12.270;2022-07-05T07:41:32;1.85;;;1.30;;
49183;SDS011;35021;49.214;12.270;2022-07-05T07:43:59;2.03;;;1.38;;
49183;SDS011;35021;49.214;12.270;2022-07-05T07:46:27;1.80;;;1.63;;
49183;SDS011;35021;49.214;12.270;2022-07-05T07:48:54;1.88;;;1.30;;
49183;SDS011;35021;49.214;12.270;2022-07-05T07:51:21;1.73;;;1.48;;
49183;SDS011;35021;49.214;12.270;2022-07-05T07:53:48;1.90;;;1.38;;
49183;SDS011;35021;49.214;12.270;2022-07-05T07:56:15;2.75;;;1.77;;
49183;SDS011;35021;49.214;12.270;2022-07-05T07:58:43;1.88;;;1.40;;
49183;SDS011;35021;49.214;12.270;2022-07-05T08:01:09;1.67;;;1.48;;
49183;SDS011;35021;49.214;12.270;2022-07-05T08:03:38;1.75;;;1.40;;
49183;SDS011;35021;49.214;12.270;2022-07-05T08:06:06;1.80;;;1.58;;
49183;SDS011;35021;49.214;12.270;2022-07-05T08:08:34;2.17;;;1.55;;
49183;SDS011;35021;49.214;12.270;2022-07-05T08:11:01;1.80;;;1.42;;
49183;SDS011;35021;49.214;12.270;2022-07-05T08:13:28;1.75;;;1.48;;
49183;SDS011;35021;49.214;12.270;2022-07-05T08:15:55;1.80;;;1.40;;
49183;SDS011;35021;49.214;12.270;2022-07-05T08:18:23;1.85;;;1.33;;
49183;SDS011;35021;49.214;12.270;2022-07-05T08:21:09;1.40;;;1.30;;
49183;SDS011;35021;49.214;12.270;2022-07-05T08:23:55;1.25;;;1.15;;
49183;SDS011;35021;49.214;12.270;2022-07-05T08:26:22;1.88;;;1.60;;
49183;SDS011;35021;49.214;12.270;2022-07-05T08:28:49;2.47;;;1.67;;
49183;SDS011;35021;49.214;12.270;2022-07-05T08:31:34;1.70;;;1.42;;
49183;SDS011;35021;49.214;12.270;2022-07-05T08:34:08;2.20;;;1.30;;
49183;SDS011;35021;49.214;12.270;2022-07-05T08:36:35;1.40;;;1.23;;
49183;SDS011;35021;49.214;12.270;2022-07-05T08:39:03;1.98;;;1.48;;
49183;SDS011;35021;49.214;12.270;2022-07-05T08:41:31;1.50;;;1.13;;
49183;SDS011;35021;49.214;12.270;2022-07-05T08:44:02;1.70;;;1.60;;
49183;SDS011;35021;49.214;12.270;2022-07-05T08:46:30;2.22;;;1.48;;
49183;SDS011;35021;49.214;12.270;2022-07-05T08:48:59;1.88;;;1.70;;
49183;SDS011;35021;49.214;12.270;2022-07-05T08:51:37;1.60;;;1.42;;
49183;SDS011;35021;49.214;12.270;2022-07-05T08:54:05;1.40;;;1.27;;
49183;SDS011;35021;49.214;12.270;2022-07-05T08:56:34;1.35;;;1.20;;
49183;SDS011;35021;49.214;12.270;2022-07-05T08:59:21;1.88;;;1.20;;
49183;SDS011;35021;49.214;12.270;2022-07-05T09:01:48;1.20;;;1.10;;
49183;SDS011;35021;49.214;12.270;2022-07-05T09:04:16;2.13;;;1.45;;
49183;SDS011;35021;49.214;12.270;2022-07-05T09:06:45;1.92;;;1.40;;
49183;SDS011;35021;49.214;12.270;2022-07-05T09:09:15;1.90;;;1.35;;
49183;SDS011;35021;49.214;12.270;2022-07-05T09:11:45;1.67;;;1.52;;
49183;SDS011;35021;49.214;12.270;2022-07-05T09:14:34;1.20;;;1.10;;
49183;SDS011;35021;49.214;12.270;2022-07-05T09:17:01;1.42;;;1.15;;
49183;SDS011;35021;49.214;12.270;2022-07-05T09:19:28;1.20;;;1.10;;
49183;SDS011;35021;49.214;12.270;2022-07-05T09:22:01;1.58;;;1.25;;
49183;SDS011;35021;49.214;12.270;2022-07-05T09:24:29;2.10;;;1.38;;
49183;SDS011;35021;49.214;12.270;2022-07-05T09:27:03;2.38;;;1.10;;
49183;SDS011;35021;49.214;12.270;2022-07-05T09:29:31;2.00;;;1.40;;
49183;SDS011;35021;49.214;12.270;2022-07-05T09:32:23;1.40;;;1.00;;
49183;SDS011;35021;49.214;12.270;2022-07-05T09:34:51;1.10;;;1.02;;
49183;SDS011;35021;49.214;12.270;2022-07-05T09:37:18;2.17;;;1.30;;
49183;SDS011;35021;49.214;12.270;2022-07-05T09:39:45;1.90;;;1.27;;
49183;SDS011;35021;49.214;12.270;2022-07-05T09:42:19;1.40;;;1.10;;
49183;SDS011;35021;49.214;12.270;2022-07-05T09:44:57;2.30;;;1.38;;
49183;SDS011;35021;49.214;12.270;2022-07-05T09:49:54;1.67;;;1.23;;
49183;SDS011;35021;49.214;12.270;2022-07-05T09:52:39;1.15;;;1.05;;
49183;SDS011;35021;49.214;12.270;2022-07-05T09:57:39;1.40;;;1.10;;
49183;SDS011;35021;49.214;12.270;2022-07-05T10:02:38;1.80;;;1.33;;
49183;SDS011;35021;49.214;12.270;2022-07-05T10:05:09;2.15;;;1.10;;
49183;SDS011;35021;49.214;12.270;2022-07-05T10:07:53;2.22;;;1.20;;
49183;SDS011;35021;49.214;12.270;2022-07-05T10:10:25;1.73;;;1.50;;
49183;SDS011;35021;49.214;12.270;2022-07-05T10:12:55;1.88;;;1.40;;
49183;SDS011;35021;49.214;12.270;2022-07-05T10:15:30;2.15;;;1.48;;
49183;SDS011;35021;49.214;12.270;2022-07-05T10:18:09;1.30;;;1.20;;
49183;SDS011;35021;49.214;12.270;2022-07-05T10:20:42;1.95;;;1.30;;
49183;SDS011;35021;49.214;12.270;2022-07-05T10:23:13;1.85;;;1.20;;
49183;SDS011;35021;49.214;12.270;2022-07-05T10:25:42;2.45;;;1.42;;
49183;SDS011;35021;49.214;12.270;2022-07-05T10:28:16;1.70;;;1.30;;
49183;SDS011;35021;49.214;12.270;2022-07-05T10:30:44;2.55;;;1.20;;
49183;SDS011;35021;49.214;12.270;2022-07-05T10:33:13;2.22;;;1.15;;
49183;SDS011;35021;49.214;12.270;2022-07-05T10:35:43;1.45;;;1.20;;
49183;SDS011;35021;49.214;12.270;2022-07-05T10:38:10;1.48;;;1.38;;
49183;SDS011;35021;49.214;12.270;2022-07-05T10:40:42;2.15;;;1.10;;
49183;SDS011;35021;49.214;12.270;2022-07-05T10:43:12;1.65;;;1.38;;
49183;SDS011;35021;49.214;12.270;2022-07-05T10:45:41;1.40;;;1.20;;
49183;SDS011;35021;49.214;12.270;2022-07-05T10:48:24;1.77;;;1.20;;
49183;SDS011;35021;49.214;12.270;2022-07-05T10:50:55;1.48;;;1.30;;
49183;SDS011;35021;49.214;12.270;2022-07-05T10:54:12;1.27;;;0.97;;
49183;SDS011;35021;49.214;12.270;2022-07-05T10:56:27;1.30;;;1.10;;
49183;SDS011;35021;49.214;12.270;2022-07-05T10:59:04;2.33;;;1.38;;
49183;SDS011;35021;49.214;12.270;2022-07-05T11:01:33;1.10;;;1.00;;
49183;SDS011;35021;49.214;12.270;2022-07-05T11:06:39;1.83;;;1.10;;
49183;SDS011;35021;49.214;12.270;2022-07-05T11:11:37;2.33;;;1.15;;
49183;SDS011;35021;49.214;12.270;2022-07-05T11:20:08;1.30;;;1.13;;
49183;SDS011;35021;49.214;12.270;2022-07-05T11:22:41;1.58;;;1.27;;
49183;SDS011;35021;49.214;12.270;2022-07-05T11:25:29;2.30;;;1.42;;
49183;SDS011;35021;49.214;12.270;2022-07-05T11:28:05;1.73;;;1.10;;
49183;SDS011;35021;49.214;12.270;2022-07-05T11:30:52;1.13;;;1.02;;
49183;SDS011;35021;49.214;12.270;2022-07-05T11:33:25;3.03;;;1.20;;
49183;SDS011;35021;49.214;12.270;2022-07-05T11:36:01;2.60;;;1.10;;
49183;SDS011;35021;49.214;12.270;2022-07-05T11:38:30;1.17;;;0.90;;
49183;SDS011;35021;49.214;12.270;2022-07-05T11:41:17;1.10;;;1.00;;
49183;SDS011;35021;49.214;12.270;2022-07-05T11:43:44;1.35;;;1.05;;
49183;SDS011;35021;49.214;12.270;2022-07-05T11:46:23;1.85;;;1.00;;
49183;SDS011;35021;49.214;12.270;2022-07-05T11:49:10;1.38;;;1.00;;
49183;SDS011;35021;49.214;12.270;2022-07-05T11:51:37;1.88;;;1.30;;
49183;SDS011;35021;49.214;12.270;2022-07-05T11:54:07;1.90;;;1.10;;
49183;SDS011;35021;49.214;12.270;2022-07-05T11:56:43;2.13;;;1.00;;
49183;SDS011;35021;49.214;12.270;2022-07-05T11:59:17;1.13;;;1.00;;
49183;SDS011;35021;49.214;12.270;2022-07-05T12:01:45;1.10;;;0.90;;
49183;SDS011;35021;49.214;12.270;2022-07-05T12:04:20;0.73;;;0.73;;
49183;SDS011;35021;49.214;12.270;2022-07-05T12:06:48;1.30;;;1.20;;
49183;SDS011;35021;49.214;12.270;2022-07-05T12:09:21;1.52;;;0.90;;
49183;SDS011;35021;49.214;12.270;2022-07-05T12:11:50;1.10;;;1.00;;
49183;SDS011;35021;49.214;12.270;2022-07-05T12:14:36;1.50;;;1.10;;
49183;SDS011;35021;49.214;12.270;2022-07-05T12:17:12;2.25;;;0.90;;
49183;SDS011;35021;49.214;12.270;2022-07-05T12:19:51;0.98;;;0.80;;
49183;SDS011;35021;49.214;12.270;2022-07-05T12:22:27;1.42;;;1.10;;
49183;SDS011;35021;49.214;12.270;2022-07-05T12:24:55;1.95;;;0.98;;
49183;SDS011;35021;49.214;12.270;2022-07-05T12:27:25;1.05;;;0.90;;
49183;SDS011;35021;49.214;12.270;2022-07-05T12:29:56;1.35;;;0.90;;
49183;SDS011;35021;49.214;12.270;2022-07-05T12:32:23;1.52;;;0.90;;
49183;SDS011;35021;49.214;12.270;2022-07-05T12:34:50;21.88;;;1.67;;
49183;SDS011;35021;49.214;12.270;2022-07-05T12:37:20;1.50;;;0.90;;
49183;SDS011;35021;49.214;12.270;2022-07-05T12:39:49;1.65;;;1.00;;
49183;SDS011;35021;49.214;12.270;2022-07-05T12:47:52;1.30;;;1.00;;
49183;SDS011;35021;49.214;12.270;2022-07-05T12:50:24;1.13;;;0.90;;
49183;SDS011;35021;49.214;12.270;2022-07-05T12:55:58;1.15;;;1.00;;
49183;SDS011;35021;49.214;12.270;2022-07-05T13:04:01;1.02;;;0.90;;
49183;SDS011;35021;49.214;12.270;2022-07-05T13:06:41;1.02;;;0.90;;
49183;SDS011;35021;49.214;12.270;2022-07-05T13:09:29;1.63;;;1.00;;
49183;SDS011;35021;49.214;12.270;2022-07-05T13:14:37;1.65;;;1.10;;
49183;SDS011;35021;49.214;12.270;2022-07-05T13:17:07;0.68;;;0.60;;
49183;SDS011;35021;49.214;12.270;2022-07-05T13:19:35;1.02;;;0.80;;
49183;SDS011;35021;49.214;12.270;2022-07-05T13:22:10;1.30;;;1.00;;
49183;SDS011;35021;49.214;12.270;2022-07-05T13:24:37;1.50;;;1.15;;
49183;SDS011;35021;49.214;12.270;2022-07-05T13:27:05;1.42;;;1.20;;
49183;SDS011;35021;49.214;12.270;2022-07-05T13:29:34;1.35;;;1.00;;
49183;SDS011;35021;49.214;12.270;2022-07-05T13:32:02;1.20;;;0.90;;
49183;SDS011;35021;49.214;12.270;2022-07-05T13:34:29;1.90;;;0.98;;
49183;SDS011;35021;49.214;12.270;2022-07-05T13:36:57;1.00;;;0.80;;
49183;SDS011;35021;49.214;12.270;2022-07-05T13:39:25;1.00;;;0.77;;
49183;SDS011;35021;49.214;12.270;2022-07-05T13:41:55;1.08;;;0.60;;
49183;SDS011;35021;49.214;12.270;2022-07-05T13:44:23;1.48;;;0.60;;
49183;SDS011;35021;49.214;12.270;2022-07-05T13:46:51;0.65;;;0.65;;
49183;SDS011;35021;49.214;12.270;2022-07-05T13:49:18;0.90;;;0.68;;
49183;SDS011;35021;49.214;12.270;2022-07-05T13:51:46;1.00;;;0.80;;
49183;SDS011;35021;49.214;12.270;2022-07-05T13:54:13;1.38;;;0.77;;
49183;SDS011;35021;49.214;12.270;2022-07-05T13:56:40;1.35;;;0.90;;
49183;SDS011;35021;49.214;12.270;2022-07-05T13:59:07;1.05;;;0.80;;
49183;SDS011;35021;49.214;12.270;2022-07-05T14:01:34;0.60;;;0.52;;
49183;SDS011;35021;49.214;12.270;2022-07-05T14:04:01;1.17;;;0.80;;
49183;SDS011;35021;49.214;12.270;2022-07-05T14:06:29;0.88;;;0.70;;
49183;SDS011;35021;49.214;12.270;2022-07-05T14:08:56;1.45;;;0.70;;
49183;SDS011;35021;49.214;12.270;2022-07-05T14:11:24;0.77;;;0.57;;
49183;SDS011;35021;49.214;12.270;2022-07-05T14:13:53;1.50;;;0.80;;
49183;SDS011;35021;49.214;12.270;2022-07-05T14:16:20;1.02;;;0.70;;
49183;SDS011;35021;49.214;12.270;2022-07-05T14:18:48;0.77;;;0.70;;
49183;SDS011;35021;49.214;12.270;2022-07-05T14:21:16;1.20;;;0.80;;
49183;SDS011;35021;49.214;12.270;2022-07-05T14:23:46;0.93;;;0.80;;
49183;SDS011;35021;49.214;12.270;2022-07-05T14:26:14;1.13;;;0.80;;
49183;SDS011;35021;49.214;12.270;2022-07-05T14:28:41;1.50;;;0.85;;
49183;SDS011;35021;49.214;12.270;2022-07-05T14:31:09;1.13;;;0.70;;
49183;SDS011;35021;49.214;12.270;2022-07-05T14:33:36;1.20;;;1.00;;
49183;SDS011;35021;49.214;12.270;2022-07-05T14:36:07;1.42;;;1.00;;
49183;SDS011;35021;49.214;12.270;2022-07-05T14:38:34;1.40;;;0.65;;
49183;SDS011;35021;49.214;12.270;2022-07-05T14:41:00;1.52;;;0.70;;
49183;SDS011;35021;49.214;12.270;2022-07-05T14:43:27;1.40;;;0.85;;
49183;SDS011;35021;49.214;12.270;2022-07-05T14:45:55;0.73;;;0.70;;
49183;SDS011;35021;49.214;12.270;2022-07-05T14:48:22;1.15;;;0.70;;
49183;SDS011;35021;49.214;12.270;2022-07-05T14:50:49;1.63;;;0.75;;
49183;SDS011;35021;49.214;12.270;2022-07-05T14:53:22;1.63;;;0.70;;
49183;SDS011;35021;49.214;12.270;2022-07-05T14:55:49;0.80;;;0.68;;
49183;SDS011;35021;49.214;12.270;2022-07-05T14:58:16;1.20;;;0.70;;
49183;SDS011;35021;49.214;12.270;2022-07-05T15:00:43;1.70;;;0.77;;
49183;SDS011;35021;49.214;12.270;2022-07-05T15:03:10;1.33;;;0.85;;
49183;SDS011;35021;49.214;12.270;2022-07-05T15:05:37;1.40;;;0.80;;
49183;SDS011;35021;49.214;12.270;2022-07-05T15:08:03;1.35;;;0.65;;
49183;SDS011;35021;49.214;12.270;2022-07-05T15:10:30;0.60;;;0.52;;
49183;SDS011;35021;49.214;12.270;2022-07-05T15:12:57;0.73;;;0.63;;
49183;SDS011;35021;49.214;12.270;2022-07-05T15:15:24;0.50;;;0.50;;
49183;SDS011;35021;49.214;12.270;2022-07-05T15:17:51;2.35;;;0.90;;
49183;SDS011;35021;49.214;12.270;2022-07-05T15:20:18;0.70;;;0.55;;
49183;SDS011;35021;49.214;12.270;2022-07-05T15:22:49;0.75;;;0.70;;
49183;SDS011;35021;49.214;12.270;2022-07-05T15:25:16;0.90;;;0.73;;
49183;SDS011;35021;49.214;12.270;2022-07-05T15:27:43;1.10;;;0.70;;
49183;SDS011;35021;49.214;12.270;2022-07-05T15:30:11;0.98;;;0.68;;